<?xml version="1.0" encoding="UTF-8" standalone="no" ?>
<gpx xmlns="http://www.topografix.com/GPX/1/1" xmlns:xsi="http://www.w3.org/2001/XMLSchema-instance" xsi:schemaLocation="http://www.topografix.com/GPX/1/1 http://www.topografix.com/GPX/1/1/gpx.xsd" version="1.1" creator="VisuGPX - https://www.visugpx.com">
  <metadata>
    <name>suce_BoucleNordOuestBis_21km</name>
    <desc><![CDATA[gnerando idor: 5548821_9731105_9730670]]></desc>
  </metadata>
  <wpt lat="47.34259" lon="-1.53106">
    <ele>21.3</ele>
    <name><![CDATA[0001488]]></name>
    <type><![CDATA[Point de départ]]></type>
  </wpt>
  <wpt lat="47.34254" lon="-1.53112">
    <ele>21.1</ele>
    <name><![CDATA[0001489]]></name>
    <desc><![CDATA[<p><br /><h3>Nom: Segment: 1</h3><br />Heure de départ: 12/03/2023 14:02<br/>Heure d'arrivée: 12/03/2023 16:09<br/>Distance: 11,1km (02:07)<br/>Temps déplacement: 02:04<br/>Vitesse moyenne: 5,24 km/h<br/>Vitesse moyenne mouv.: 5,36 km/h<br/>Vitesse Max.: 8,1 km/h<br/>Altitude minimale: 3 m<br/>Altitude maximale: 38 m<br/>Vitesse de montée: 127 m/h<br/>Vitesse de descente: -156,2 m/h<br/>Gain d'altitude: 121 m<br/>Perte d'altitude: -121 m<br/>Temps de montée: 00:57<br/>Temps de descente: 00:46<br/></p>]]></desc>
    <type><![CDATA[Point d'arrivée]]></type>
  </wpt>
  <trk>
    <name><![CDATA[Suce_VoiettesVariante_11.7km-5646865]]></name>
    <extensions>
      <line xmlns="http://www.topografix.com/GPX/gpx_style/0/2">
        <color>008080</color>
        <width>4</width>
      </line>
    </extensions>
    <trkseg>
      <trkpt lat="47.34451" lon="-1.52846">
        <ele>21</ele>
        <time>2023-08-11T13:31:18Z</time>
      </trkpt>
      <trkpt lat="47.34444" lon="-1.52868">
        <ele>21</ele>
        <time>2023-08-11T13:31:40Z</time>
      </trkpt>
      <trkpt lat="47.34476" lon="-1.529">
        <ele>23</ele>
        <time>2023-08-11T13:32:32Z</time>
      </trkpt>
      <trkpt lat="47.34458" lon="-1.52931">
        <ele>22</ele>
        <time>2023-08-11T13:33:08Z</time>
      </trkpt>
      <trkpt lat="47.34364" lon="-1.53024">
        <ele>22</ele>
        <time>2023-08-11T13:35:39Z</time>
      </trkpt>
      <trkpt lat="47.34257" lon="-1.53141">
        <ele>21</ele>
        <time>2023-08-11T13:38:37Z</time>
      </trkpt>
      <trkpt lat="47.34262" lon="-1.53171">
        <ele>22</ele>
        <time>2023-08-11T13:39:05Z</time>
      </trkpt>
      <trkpt lat="47.34273" lon="-1.5318">
        <ele>23</ele>
        <time>2023-08-11T13:39:22Z</time>
      </trkpt>
      <trkpt lat="47.34306" lon="-1.53184">
        <ele>23</ele>
        <time>2023-08-11T13:40:06Z</time>
      </trkpt>
      <trkpt lat="47.34332" lon="-1.53233">
        <ele>25</ele>
        <time>2023-08-11T13:41:02Z</time>
      </trkpt>
      <trkpt lat="47.3434" lon="-1.5326">
        <ele>26</ele>
        <time>2023-08-11T13:41:29Z</time>
      </trkpt>
      <trkpt lat="47.34405" lon="-1.53368">
        <ele>29</ele>
        <time>2023-08-11T13:43:40Z</time>
      </trkpt>
      <trkpt lat="47.34464" lon="-1.53435">
        <ele>30</ele>
        <time>2023-08-11T13:45:19Z</time>
      </trkpt>
      <trkpt lat="47.34479" lon="-1.53455">
        <ele>31</ele>
        <time>2023-08-11T13:45:46Z</time>
      </trkpt>
      <trkpt lat="47.34489" lon="-1.53472">
        <ele>31</ele>
        <time>2023-08-11T13:46:06Z</time>
      </trkpt>
      <trkpt lat="47.3449" lon="-1.53488">
        <ele>32</ele>
        <time>2023-08-11T13:46:21Z</time>
      </trkpt>
      <trkpt lat="47.34504" lon="-1.53502">
        <ele>32</ele>
        <time>2023-08-11T13:46:43Z</time>
      </trkpt>
      <trkpt lat="47.34517" lon="-1.53534">
        <ele>34</ele>
        <time>2023-08-11T13:47:17Z</time>
      </trkpt>
      <trkpt lat="47.34586" lon="-1.53646">
        <ele>38</ele>
        <time>2023-08-11T13:49:34Z</time>
      </trkpt>
      <trkpt lat="47.34621" lon="-1.53695">
        <ele>37</ele>
        <time>2023-08-11T13:50:38Z</time>
      </trkpt>
      <trkpt lat="47.34642" lon="-1.53719">
        <ele>37</ele>
        <time>2023-08-11T13:51:14Z</time>
      </trkpt>
      <trkpt lat="47.34666" lon="-1.53756">
        <ele>37</ele>
        <time>2023-08-11T13:52:00Z</time>
      </trkpt>
      <trkpt lat="47.34723" lon="-1.53835">
        <ele>36</ele>
        <time>2023-08-11T13:53:45Z</time>
      </trkpt>
      <trkpt lat="47.34852" lon="-1.54031">
        <ele>35</ele>
        <time>2023-08-11T13:57:52Z</time>
      </trkpt>
      <trkpt lat="47.34873" lon="-1.54086">
        <ele>35</ele>
        <time>2023-08-11T13:58:49Z</time>
      </trkpt>
      <trkpt lat="47.34874" lon="-1.54094">
        <ele>35</ele>
        <time>2023-08-11T13:58:56Z</time>
      </trkpt>
      <trkpt lat="47.34895" lon="-1.54153">
        <ele>34</ele>
        <time>2023-08-11T13:59:56Z</time>
      </trkpt>
      <trkpt lat="47.34906" lon="-1.54174">
        <ele>34</ele>
        <time>2023-08-11T14:00:20Z</time>
      </trkpt>
      <trkpt lat="47.34909" lon="-1.54191">
        <ele>34</ele>
        <time>2023-08-11T14:00:36Z</time>
      </trkpt>
      <trkpt lat="47.34923" lon="-1.54227">
        <ele>35</ele>
        <time>2023-08-11T14:01:14Z</time>
      </trkpt>
      <trkpt lat="47.34935" lon="-1.5425">
        <ele>35</ele>
        <time>2023-08-11T14:01:40Z</time>
      </trkpt>
      <trkpt lat="47.34979" lon="-1.54394">
        <ele>33</ele>
        <time>2023-08-11T14:04:03Z</time>
      </trkpt>
      <trkpt lat="47.35013" lon="-1.54484">
        <ele>31</ele>
        <time>2023-08-11T14:05:36Z</time>
      </trkpt>
      <trkpt lat="47.35045" lon="-1.54531">
        <ele>29</ele>
        <time>2023-08-11T14:06:36Z</time>
      </trkpt>
      <trkpt lat="47.35084" lon="-1.54568">
        <ele>29</ele>
        <time>2023-08-11T14:07:38Z</time>
      </trkpt>
      <trkpt lat="47.35125" lon="-1.5457">
        <ele>29</ele>
        <time>2023-08-11T14:08:33Z</time>
      </trkpt>
      <trkpt lat="47.35175" lon="-1.54577">
        <ele>29</ele>
        <time>2023-08-11T14:09:40Z</time>
      </trkpt>
      <trkpt lat="47.35245" lon="-1.54753">
        <ele>33</ele>
        <time>2023-08-11T14:12:44Z</time>
      </trkpt>
      <trkpt lat="47.35254" lon="-1.54789">
        <ele>34</ele>
        <time>2023-08-11T14:13:19Z</time>
      </trkpt>
      <trkpt lat="47.3525" lon="-1.5481">
        <ele>34</ele>
        <time>2023-08-11T14:13:39Z</time>
      </trkpt>
      <trkpt lat="47.35211" lon="-1.54878">
        <ele>35</ele>
        <time>2023-08-11T14:14:59Z</time>
      </trkpt>
      <trkpt lat="47.35163" lon="-1.54976">
        <ele>36</ele>
        <time>2023-08-11T14:16:49Z</time>
      </trkpt>
      <trkpt lat="47.35142" lon="-1.55043">
        <ele>36</ele>
        <time>2023-08-11T14:17:55Z</time>
      </trkpt>
      <trkpt lat="47.35143" lon="-1.55062">
        <ele>37</ele>
        <time>2023-08-11T14:18:13Z</time>
      </trkpt>
      <trkpt lat="47.35138" lon="-1.55096">
        <ele>37</ele>
        <time>2023-08-11T14:18:44Z</time>
      </trkpt>
      <trkpt lat="47.3513" lon="-1.5511">
        <ele>37</ele>
        <time>2023-08-11T14:19:01Z</time>
      </trkpt>
      <trkpt lat="47.35121" lon="-1.55156">
        <ele>37</ele>
        <time>2023-08-11T14:19:44Z</time>
      </trkpt>
      <trkpt lat="47.35111" lon="-1.55173">
        <ele>37</ele>
        <time>2023-08-11T14:20:04Z</time>
      </trkpt>
      <trkpt lat="47.35019" lon="-1.55226">
        <ele>34</ele>
        <time>2023-08-11T14:22:16Z</time>
      </trkpt>
      <trkpt lat="47.34924" lon="-1.55267">
        <ele>32</ele>
        <time>2023-08-11T14:24:28Z</time>
      </trkpt>
      <trkpt lat="47.34892" lon="-1.55284">
        <ele>31</ele>
        <time>2023-08-11T14:25:13Z</time>
      </trkpt>
      <trkpt lat="47.34838" lon="-1.55324">
        <ele>31</ele>
        <time>2023-08-11T14:26:34Z</time>
      </trkpt>
      <trkpt lat="47.34804" lon="-1.55354">
        <ele>31</ele>
        <time>2023-08-11T14:27:27Z</time>
      </trkpt>
      <trkpt lat="47.34792" lon="-1.5536">
        <ele>31</ele>
        <time>2023-08-11T14:27:44Z</time>
      </trkpt>
      <trkpt lat="47.34742" lon="-1.55368">
        <ele>30</ele>
        <time>2023-08-11T14:28:51Z</time>
      </trkpt>
      <trkpt lat="47.34737" lon="-1.55374">
        <ele>30</ele>
        <time>2023-08-11T14:29:00Z</time>
      </trkpt>
      <trkpt lat="47.3474" lon="-1.55398">
        <ele>31</ele>
        <time>2023-08-11T14:29:22Z</time>
      </trkpt>
      <trkpt lat="47.34757" lon="-1.55457">
        <ele>31</ele>
        <time>2023-08-11T14:30:20Z</time>
      </trkpt>
      <trkpt lat="47.34792" lon="-1.5561">
        <ele>28</ele>
        <time>2023-08-11T14:32:46Z</time>
      </trkpt>
      <trkpt lat="47.34809" lon="-1.55642">
        <ele>27</ele>
        <time>2023-08-11T14:33:22Z</time>
      </trkpt>
      <trkpt lat="47.3482" lon="-1.55653">
        <ele>27</ele>
        <time>2023-08-11T14:33:40Z</time>
      </trkpt>
      <trkpt lat="47.34834" lon="-1.55674">
        <ele>26</ele>
        <time>2023-08-11T14:34:07Z</time>
      </trkpt>
      <trkpt lat="47.34839" lon="-1.5569">
        <ele>26</ele>
        <time>2023-08-11T14:34:23Z</time>
      </trkpt>
      <trkpt lat="47.34857" lon="-1.55722">
        <ele>27</ele>
        <time>2023-08-11T14:35:00Z</time>
      </trkpt>
      <trkpt lat="47.34871" lon="-1.55741">
        <ele>27</ele>
        <time>2023-08-11T14:35:26Z</time>
      </trkpt>
      <trkpt lat="47.34888" lon="-1.55782">
        <ele>28</ele>
        <time>2023-08-11T14:36:09Z</time>
      </trkpt>
      <trkpt lat="47.34903" lon="-1.55808">
        <ele>29</ele>
        <time>2023-08-11T14:36:40Z</time>
      </trkpt>
      <trkpt lat="47.3491" lon="-1.55824">
        <ele>30</ele>
        <time>2023-08-11T14:36:57Z</time>
      </trkpt>
      <trkpt lat="47.34914" lon="-1.55854">
        <ele>30</ele>
        <time>2023-08-11T14:37:25Z</time>
      </trkpt>
      <trkpt lat="47.34922" lon="-1.55869">
        <ele>31</ele>
        <time>2023-08-11T14:37:42Z</time>
      </trkpt>
      <trkpt lat="47.34935" lon="-1.55906">
        <ele>32</ele>
        <time>2023-08-11T14:38:20Z</time>
      </trkpt>
      <trkpt lat="47.34941" lon="-1.5593">
        <ele>32</ele>
        <time>2023-08-11T14:38:43Z</time>
      </trkpt>
      <trkpt lat="47.34935" lon="-1.5593">
        <ele>32</ele>
        <time>2023-08-11T14:38:51Z</time>
      </trkpt>
      <trkpt lat="47.34946" lon="-1.55934">
        <ele>33</ele>
        <time>2023-08-11T14:39:06Z</time>
      </trkpt>
      <trkpt lat="47.34962" lon="-1.55924">
        <ele>33</ele>
        <time>2023-08-11T14:39:29Z</time>
      </trkpt>
      <trkpt lat="47.34977" lon="-1.55918">
        <ele>33</ele>
        <time>2023-08-11T14:39:50Z</time>
      </trkpt>
      <trkpt lat="47.35084" lon="-1.55884">
        <ele>34</ele>
        <time>2023-08-11T14:42:16Z</time>
      </trkpt>
      <trkpt lat="47.35091" lon="-1.55884">
        <ele>34</ele>
        <time>2023-08-11T14:42:25Z</time>
      </trkpt>
      <trkpt lat="47.35098" lon="-1.55885">
        <ele>34</ele>
        <time>2023-08-11T14:42:35Z</time>
      </trkpt>
      <trkpt lat="47.35117" lon="-1.55894">
        <ele>34</ele>
        <time>2023-08-11T14:43:01Z</time>
      </trkpt>
      <trkpt lat="47.3513" lon="-1.55905">
        <ele>34</ele>
        <time>2023-08-11T14:43:21Z</time>
      </trkpt>
      <trkpt lat="47.35153" lon="-1.55935">
        <ele>35</ele>
        <time>2023-08-11T14:44:02Z</time>
      </trkpt>
      <trkpt lat="47.35171" lon="-1.55945">
        <ele>35</ele>
        <time>2023-08-11T14:44:28Z</time>
      </trkpt>
      <trkpt lat="47.35184" lon="-1.55945">
        <ele>35</ele>
        <time>2023-08-11T14:44:45Z</time>
      </trkpt>
      <trkpt lat="47.35281" lon="-1.55909">
        <ele>34</ele>
        <time>2023-08-11T14:46:59Z</time>
      </trkpt>
      <trkpt lat="47.35343" lon="-1.5588">
        <ele>34</ele>
        <time>2023-08-11T14:48:26Z</time>
      </trkpt>
      <trkpt lat="47.35363" lon="-1.55875">
        <ele>34</ele>
        <time>2023-08-11T14:48:53Z</time>
      </trkpt>
      <trkpt lat="47.35374" lon="-1.55868">
        <ele>34</ele>
        <time>2023-08-11T14:49:09Z</time>
      </trkpt>
      <trkpt lat="47.35422" lon="-1.55849">
        <ele>34</ele>
        <time>2023-08-11T14:50:15Z</time>
      </trkpt>
      <trkpt lat="47.35426" lon="-1.55845">
        <ele>34</ele>
        <time>2023-08-11T14:50:21Z</time>
      </trkpt>
      <trkpt lat="47.3543" lon="-1.55831">
        <ele>35</ele>
        <time>2023-08-11T14:50:35Z</time>
      </trkpt>
      <trkpt lat="47.3542" lon="-1.55727">
        <ele>35</ele>
        <time>2023-08-11T14:52:10Z</time>
      </trkpt>
      <trkpt lat="47.35417" lon="-1.55641">
        <ele>36</ele>
        <time>2023-08-11T14:53:28Z</time>
      </trkpt>
      <trkpt lat="47.35425" lon="-1.55629">
        <ele>36</ele>
        <time>2023-08-11T14:53:43Z</time>
      </trkpt>
      <trkpt lat="47.35456" lon="-1.55617">
        <ele>36</ele>
        <time>2023-08-11T14:54:26Z</time>
      </trkpt>
      <trkpt lat="47.35498" lon="-1.55596">
        <ele>37</ele>
        <time>2023-08-11T14:55:25Z</time>
      </trkpt>
      <trkpt lat="47.35536" lon="-1.55585">
        <ele>38</ele>
        <time>2023-08-11T14:56:17Z</time>
      </trkpt>
      <trkpt lat="47.35586" lon="-1.55563">
        <ele>38</ele>
        <time>2023-08-11T14:57:26Z</time>
      </trkpt>
      <trkpt lat="47.35623" lon="-1.5555">
        <ele>38</ele>
        <time>2023-08-11T14:58:17Z</time>
      </trkpt>
      <trkpt lat="47.35649" lon="-1.55535">
        <ele>39</ele>
        <time>2023-08-11T14:58:54Z</time>
      </trkpt>
      <trkpt lat="47.3565" lon="-1.55538">
        <ele>39</ele>
        <time>2023-08-11T14:58:58Z</time>
      </trkpt>
      <trkpt lat="47.3566" lon="-1.55534">
        <ele>39</ele>
        <time>2023-08-11T14:59:11Z</time>
      </trkpt>
      <trkpt lat="47.35665" lon="-1.55536">
        <ele>39</ele>
        <time>2023-08-11T14:59:18Z</time>
      </trkpt>
      <trkpt lat="47.35672" lon="-1.55549">
        <ele>39</ele>
        <time>2023-08-11T14:59:33Z</time>
      </trkpt>
      <trkpt lat="47.35677" lon="-1.55569">
        <ele>39</ele>
        <time>2023-08-11T14:59:53Z</time>
      </trkpt>
      <trkpt lat="47.35695" lon="-1.55598">
        <ele>38</ele>
        <time>2023-08-11T15:00:28Z</time>
      </trkpt>
      <trkpt lat="47.35732" lon="-1.55674">
        <ele>38</ele>
        <time>2023-08-11T15:01:53Z</time>
      </trkpt>
      <trkpt lat="47.35759" lon="-1.55714">
        <ele>38</ele>
        <time>2023-08-11T15:02:44Z</time>
      </trkpt>
      <trkpt lat="47.35772" lon="-1.5571">
        <ele>38</ele>
        <time>2023-08-11T15:03:01Z</time>
      </trkpt>
      <trkpt lat="47.35802" lon="-1.55689">
        <ele>37</ele>
        <time>2023-08-11T15:03:46Z</time>
      </trkpt>
      <trkpt lat="47.35833" lon="-1.55674">
        <ele>37</ele>
        <time>2023-08-11T15:04:29Z</time>
      </trkpt>
      <trkpt lat="47.35888" lon="-1.55665">
        <ele>37</ele>
        <time>2023-08-11T15:05:43Z</time>
      </trkpt>
      <trkpt lat="47.35954" lon="-1.5566">
        <ele>36</ele>
        <time>2023-08-11T15:07:11Z</time>
      </trkpt>
      <trkpt lat="47.3602" lon="-1.55659">
        <ele>36</ele>
        <time>2023-08-11T15:08:39Z</time>
      </trkpt>
      <trkpt lat="47.3609" lon="-1.55654">
        <ele>36</ele>
        <time>2023-08-11T15:10:13Z</time>
      </trkpt>
      <trkpt lat="47.36089" lon="-1.55656">
        <ele>36</ele>
        <time>2023-08-11T15:10:15Z</time>
      </trkpt>
      <trkpt lat="47.36092" lon="-1.55656">
        <ele>36</ele>
        <time>2023-08-11T15:10:19Z</time>
      </trkpt>
      <trkpt lat="47.3609" lon="-1.55657">
        <ele>36</ele>
        <time>2023-08-11T15:10:22Z</time>
      </trkpt>
      <trkpt lat="47.36093" lon="-1.55655">
        <ele>36</ele>
        <time>2023-08-11T15:10:26Z</time>
      </trkpt>
      <trkpt lat="47.36097" lon="-1.55657">
        <ele>36</ele>
        <time>2023-08-11T15:10:32Z</time>
      </trkpt>
      <trkpt lat="47.36097" lon="-1.5566">
        <ele>36</ele>
        <time>2023-08-11T15:10:35Z</time>
      </trkpt>
      <trkpt lat="47.36095" lon="-1.5566">
        <ele>36</ele>
        <time>2023-08-11T15:10:37Z</time>
      </trkpt>
      <trkpt lat="47.36093" lon="-1.55656">
        <ele>36</ele>
        <time>2023-08-11T15:10:42Z</time>
      </trkpt>
      <trkpt lat="47.36089" lon="-1.55659">
        <ele>36</ele>
        <time>2023-08-11T15:10:48Z</time>
      </trkpt>
      <trkpt lat="47.3609" lon="-1.55657">
        <ele>36</ele>
        <time>2023-08-11T15:10:50Z</time>
      </trkpt>
      <trkpt lat="47.36094" lon="-1.55659">
        <ele>36</ele>
        <time>2023-08-11T15:10:56Z</time>
      </trkpt>
      <trkpt lat="47.36089" lon="-1.55656">
        <ele>36</ele>
        <time>2023-08-11T15:11:03Z</time>
      </trkpt>
      <trkpt lat="47.36089" lon="-1.55661">
        <ele>36</ele>
        <time>2023-08-11T15:11:08Z</time>
      </trkpt>
      <trkpt lat="47.36092" lon="-1.55663">
        <ele>36</ele>
        <time>2023-08-11T15:11:12Z</time>
      </trkpt>
      <trkpt lat="47.36091" lon="-1.55656">
        <ele>36</ele>
        <time>2023-08-11T15:11:18Z</time>
      </trkpt>
      <trkpt lat="47.36093" lon="-1.55654">
        <ele>36</ele>
        <time>2023-08-11T15:11:22Z</time>
      </trkpt>
      <trkpt lat="47.36118" lon="-1.55653">
        <ele>36</ele>
        <time>2023-08-11T15:11:55Z</time>
      </trkpt>
      <trkpt lat="47.36237" lon="-1.5566">
        <ele>35</ele>
        <time>2023-08-11T15:14:34Z</time>
      </trkpt>
      <trkpt lat="47.36287" lon="-1.55668">
        <ele>35</ele>
        <time>2023-08-11T15:15:41Z</time>
      </trkpt>
      <trkpt lat="47.36334" lon="-1.55669">
        <ele>36</ele>
        <time>2023-08-11T15:16:44Z</time>
      </trkpt>
      <trkpt lat="47.36346" lon="-1.55672">
        <ele>36</ele>
        <time>2023-08-11T15:17:00Z</time>
      </trkpt>
      <trkpt lat="47.36358" lon="-1.55671">
        <ele>36</ele>
        <time>2023-08-11T15:17:16Z</time>
      </trkpt>
      <trkpt lat="47.36404" lon="-1.55677">
        <ele>36</ele>
        <time>2023-08-11T15:18:18Z</time>
      </trkpt>
      <trkpt lat="47.36464" lon="-1.55696">
        <ele>36</ele>
        <time>2023-08-11T15:19:40Z</time>
      </trkpt>
      <trkpt lat="47.36501" lon="-1.5572">
        <ele>35</ele>
        <time>2023-08-11T15:20:33Z</time>
      </trkpt>
      <trkpt lat="47.36526" lon="-1.5574">
        <ele>34</ele>
        <time>2023-08-11T15:21:11Z</time>
      </trkpt>
      <trkpt lat="47.36589" lon="-1.55776">
        <ele>33</ele>
        <time>2023-08-11T15:22:42Z</time>
      </trkpt>
      <trkpt lat="47.366" lon="-1.55785">
        <ele>32</ele>
        <time>2023-08-11T15:22:58Z</time>
      </trkpt>
      <trkpt lat="47.36709" lon="-1.55834">
        <ele>30</ele>
        <time>2023-08-11T15:25:30Z</time>
      </trkpt>
      <trkpt lat="47.36832" lon="-1.55893">
        <ele>30</ele>
        <time>2023-08-11T15:28:23Z</time>
      </trkpt>
      <trkpt lat="47.36858" lon="-1.55904">
        <ele>30</ele>
        <time>2023-08-11T15:28:59Z</time>
      </trkpt>
      <trkpt lat="47.36877" lon="-1.55905">
        <ele>30</ele>
        <time>2023-08-11T15:29:24Z</time>
      </trkpt>
      <trkpt lat="47.36889" lon="-1.55909">
        <ele>30</ele>
        <time>2023-08-11T15:29:41Z</time>
      </trkpt>
      <trkpt lat="47.37032" lon="-1.55966">
        <ele>30</ele>
        <time>2023-08-11T15:32:59Z</time>
      </trkpt>
      <trkpt lat="47.37081" lon="-1.55989">
        <ele>31</ele>
        <time>2023-08-11T15:34:07Z</time>
      </trkpt>
      <trkpt lat="47.37088" lon="-1.55989">
        <ele>31</ele>
        <time>2023-08-11T15:34:16Z</time>
      </trkpt>
      <trkpt lat="47.37125" lon="-1.55921">
        <ele>31</ele>
        <time>2023-08-11T15:35:35Z</time>
      </trkpt>
      <trkpt lat="47.37153" lon="-1.55879">
        <ele>32</ele>
        <time>2023-08-11T15:36:29Z</time>
      </trkpt>
      <trkpt lat="47.37165" lon="-1.55778">
        <ele>32</ele>
        <time>2023-08-11T15:38:01Z</time>
      </trkpt>
      <trkpt lat="47.37178" lon="-1.55708">
        <ele>31</ele>
        <time>2023-08-11T15:39:07Z</time>
      </trkpt>
      <trkpt lat="47.37184" lon="-1.55654">
        <ele>30</ele>
        <time>2023-08-11T15:39:56Z</time>
      </trkpt>
      <trkpt lat="47.37188" lon="-1.55637">
        <ele>30</ele>
        <time>2023-08-11T15:40:13Z</time>
      </trkpt>
      <trkpt lat="47.37189" lon="-1.55616">
        <ele>30</ele>
        <time>2023-08-11T15:40:32Z</time>
      </trkpt>
      <trkpt lat="47.372" lon="-1.5557">
        <ele>29</ele>
        <time>2023-08-11T15:41:16Z</time>
      </trkpt>
      <trkpt lat="47.37205" lon="-1.55553">
        <ele>29</ele>
        <time>2023-08-11T15:41:32Z</time>
      </trkpt>
      <trkpt lat="47.37232" lon="-1.55494">
        <ele>29</ele>
        <time>2023-08-11T15:42:37Z</time>
      </trkpt>
      <trkpt lat="47.37292" lon="-1.55405">
        <ele>29</ele>
        <time>2023-08-11T15:44:30Z</time>
      </trkpt>
      <trkpt lat="47.373" lon="-1.55389">
        <ele>29</ele>
        <time>2023-08-11T15:44:48Z</time>
      </trkpt>
      <trkpt lat="47.37313" lon="-1.55314">
        <ele>30</ele>
        <time>2023-08-11T15:45:58Z</time>
      </trkpt>
      <trkpt lat="47.37324" lon="-1.55209">
        <ele>30</ele>
        <time>2023-08-11T15:47:34Z</time>
      </trkpt>
      <trkpt lat="47.3733" lon="-1.55205">
        <ele>30</ele>
        <time>2023-08-11T15:47:43Z</time>
      </trkpt>
      <trkpt lat="47.37343" lon="-1.55203">
        <ele>29</ele>
        <time>2023-08-11T15:48:00Z</time>
      </trkpt>
      <trkpt lat="47.37348" lon="-1.55198">
        <ele>29</ele>
        <time>2023-08-11T15:48:08Z</time>
      </trkpt>
      <trkpt lat="47.37355" lon="-1.55183">
        <ele>29</ele>
        <time>2023-08-11T15:48:25Z</time>
      </trkpt>
      <trkpt lat="47.3736" lon="-1.55129">
        <ele>30</ele>
        <time>2023-08-11T15:49:14Z</time>
      </trkpt>
      <trkpt lat="47.37357" lon="-1.55095">
        <ele>30</ele>
        <time>2023-08-11T15:49:45Z</time>
      </trkpt>
      <trkpt lat="47.37359" lon="-1.55046">
        <ele>30</ele>
        <time>2023-08-11T15:50:30Z</time>
      </trkpt>
      <trkpt lat="47.37357" lon="-1.55">
        <ele>30</ele>
        <time>2023-08-11T15:51:11Z</time>
      </trkpt>
      <trkpt lat="47.37371" lon="-1.54937">
        <ele>31</ele>
        <time>2023-08-11T15:52:11Z</time>
      </trkpt>
      <trkpt lat="47.37373" lon="-1.54907">
        <ele>31</ele>
        <time>2023-08-11T15:52:38Z</time>
      </trkpt>
      <trkpt lat="47.37379" lon="-1.5487">
        <ele>31</ele>
        <time>2023-08-11T15:53:13Z</time>
      </trkpt>
      <trkpt lat="47.37393" lon="-1.54816">
        <ele>31</ele>
        <time>2023-08-11T15:54:05Z</time>
      </trkpt>
      <trkpt lat="47.37391" lon="-1.5477">
        <ele>30</ele>
        <time>2023-08-11T15:54:47Z</time>
      </trkpt>
      <trkpt lat="47.37384" lon="-1.54712">
        <ele>30</ele>
        <time>2023-08-11T15:55:40Z</time>
      </trkpt>
      <trkpt lat="47.37373" lon="-1.54656">
        <ele>29</ele>
        <time>2023-08-11T15:56:33Z</time>
      </trkpt>
      <trkpt lat="47.37365" lon="-1.54642">
        <ele>29</ele>
        <time>2023-08-11T15:56:49Z</time>
      </trkpt>
      <trkpt lat="47.37359" lon="-1.54639">
        <ele>29</ele>
        <time>2023-08-11T15:56:58Z</time>
      </trkpt>
      <trkpt lat="47.37352" lon="-1.54637">
        <ele>29</ele>
        <time>2023-08-11T15:57:07Z</time>
      </trkpt>
      <trkpt lat="47.37332" lon="-1.5464">
        <ele>30</ele>
        <time>2023-08-11T15:57:34Z</time>
      </trkpt>
      <trkpt lat="47.37325" lon="-1.54639">
        <ele>30</ele>
        <time>2023-08-11T15:57:43Z</time>
      </trkpt>
      <trkpt lat="47.37344" lon="-1.54594">
        <ele>29</ele>
        <time>2023-08-11T15:58:31Z</time>
      </trkpt>
      <trkpt lat="47.37349" lon="-1.54588">
        <ele>29</ele>
        <time>2023-08-11T15:58:40Z</time>
      </trkpt>
      <trkpt lat="47.37347" lon="-1.54529">
        <ele>28</ele>
        <time>2023-08-11T15:59:33Z</time>
      </trkpt>
      <trkpt lat="47.3735" lon="-1.54479">
        <ele>26</ele>
        <time>2023-08-11T16:00:19Z</time>
      </trkpt>
      <trkpt lat="47.37365" lon="-1.54342">
        <ele>21</ele>
        <time>2023-08-11T16:02:24Z</time>
      </trkpt>
      <trkpt lat="47.37374" lon="-1.54294">
        <ele>21</ele>
        <time>2023-08-11T16:03:09Z</time>
      </trkpt>
      <trkpt lat="47.37372" lon="-1.54275">
        <ele>21</ele>
        <time>2023-08-11T16:03:26Z</time>
      </trkpt>
      <trkpt lat="47.37351" lon="-1.5425">
        <ele>20</ele>
        <time>2023-08-11T16:04:02Z</time>
      </trkpt>
      <trkpt lat="47.37324" lon="-1.542">
        <ele>21</ele>
        <time>2023-08-11T16:05:00Z</time>
      </trkpt>
      <trkpt lat="47.37321" lon="-1.54199">
        <ele>21</ele>
        <time>2023-08-11T16:05:04Z</time>
      </trkpt>
      <trkpt lat="47.37318" lon="-1.54183">
        <ele>21</ele>
        <time>2023-08-11T16:05:19Z</time>
      </trkpt>
      <trkpt lat="47.37301" lon="-1.54146">
        <ele>21</ele>
        <time>2023-08-11T16:06:00Z</time>
      </trkpt>
      <trkpt lat="47.37276" lon="-1.54074">
        <ele>22</ele>
        <time>2023-08-11T16:07:13Z</time>
      </trkpt>
      <trkpt lat="47.37265" lon="-1.54052">
        <ele>22</ele>
        <time>2023-08-11T16:07:38Z</time>
      </trkpt>
      <trkpt lat="47.37259" lon="-1.54047">
        <ele>21</ele>
        <time>2023-08-11T16:07:47Z</time>
      </trkpt>
      <trkpt lat="47.37252" lon="-1.54047">
        <ele>21</ele>
        <time>2023-08-11T16:07:56Z</time>
      </trkpt>
      <trkpt lat="47.37154" lon="-1.54078">
        <ele>20</ele>
        <time>2023-08-11T16:10:10Z</time>
      </trkpt>
      <trkpt lat="47.37139" lon="-1.54095">
        <ele>20</ele>
        <time>2023-08-11T16:10:35Z</time>
      </trkpt>
      <trkpt lat="47.37121" lon="-1.54124">
        <ele>19</ele>
        <time>2023-08-11T16:11:11Z</time>
      </trkpt>
      <trkpt lat="47.37112" lon="-1.54154">
        <ele>19</ele>
        <time>2023-08-11T16:11:40Z</time>
      </trkpt>
      <trkpt lat="47.37106" lon="-1.54161">
        <ele>19</ele>
        <time>2023-08-11T16:11:50Z</time>
      </trkpt>
      <trkpt lat="47.371" lon="-1.54164">
        <ele>19</ele>
        <time>2023-08-11T16:11:59Z</time>
      </trkpt>
      <trkpt lat="47.37079" lon="-1.54164">
        <ele>19</ele>
        <time>2023-08-11T16:12:27Z</time>
      </trkpt>
      <trkpt lat="47.37049" lon="-1.54143">
        <ele>18</ele>
        <time>2023-08-11T16:13:11Z</time>
      </trkpt>
      <trkpt lat="47.37035" lon="-1.54143">
        <ele>18</ele>
        <time>2023-08-11T16:13:30Z</time>
      </trkpt>
      <trkpt lat="47.36984" lon="-1.54166">
        <ele>18</ele>
        <time>2023-08-11T16:14:41Z</time>
      </trkpt>
      <trkpt lat="47.36971" lon="-1.54168">
        <ele>19</ele>
        <time>2023-08-11T16:14:59Z</time>
      </trkpt>
      <trkpt lat="47.36926" lon="-1.54185">
        <ele>20</ele>
        <time>2023-08-11T16:16:01Z</time>
      </trkpt>
      <trkpt lat="47.36864" lon="-1.54228">
        <ele>20</ele>
        <time>2023-08-11T16:17:32Z</time>
      </trkpt>
      <trkpt lat="47.36858" lon="-1.54238">
        <ele>20</ele>
        <time>2023-08-11T16:17:44Z</time>
      </trkpt>
      <trkpt lat="47.36827" lon="-1.54258">
        <ele>19</ele>
        <time>2023-08-11T16:18:29Z</time>
      </trkpt>
      <trkpt lat="47.36775" lon="-1.54303">
        <ele>20</ele>
        <time>2023-08-11T16:19:50Z</time>
      </trkpt>
      <trkpt lat="47.3676" lon="-1.54312">
        <ele>20</ele>
        <time>2023-08-11T16:20:11Z</time>
      </trkpt>
      <trkpt lat="47.36697" lon="-1.54338">
        <ele>19</ele>
        <time>2023-08-11T16:21:39Z</time>
      </trkpt>
      <trkpt lat="47.36678" lon="-1.54349">
        <ele>19</ele>
        <time>2023-08-11T16:22:06Z</time>
      </trkpt>
      <trkpt lat="47.36647" lon="-1.54349">
        <ele>19</ele>
        <time>2023-08-11T16:22:47Z</time>
      </trkpt>
      <trkpt lat="47.36628" lon="-1.54353">
        <ele>19</ele>
        <time>2023-08-11T16:23:13Z</time>
      </trkpt>
      <trkpt lat="47.36576" lon="-1.54354">
        <ele>19</ele>
        <time>2023-08-11T16:24:22Z</time>
      </trkpt>
      <trkpt lat="47.36531" lon="-1.54347">
        <ele>20</ele>
        <time>2023-08-11T16:25:22Z</time>
      </trkpt>
      <trkpt lat="47.36517" lon="-1.54341">
        <ele>20</ele>
        <time>2023-08-11T16:25:42Z</time>
      </trkpt>
      <trkpt lat="47.36497" lon="-1.5432">
        <ele>20</ele>
        <time>2023-08-11T16:26:15Z</time>
      </trkpt>
      <trkpt lat="47.36486" lon="-1.54314">
        <ele>20</ele>
        <time>2023-08-11T16:26:30Z</time>
      </trkpt>
      <trkpt lat="47.36471" lon="-1.54298">
        <ele>20</ele>
        <time>2023-08-11T16:26:55Z</time>
      </trkpt>
      <trkpt lat="47.36461" lon="-1.54292">
        <ele>20</ele>
        <time>2023-08-11T16:27:09Z</time>
      </trkpt>
      <trkpt lat="47.36429" lon="-1.54284">
        <ele>20</ele>
        <time>2023-08-11T16:27:53Z</time>
      </trkpt>
      <trkpt lat="47.36395" lon="-1.5428">
        <ele>21</ele>
        <time>2023-08-11T16:28:38Z</time>
      </trkpt>
      <trkpt lat="47.36337" lon="-1.5426">
        <ele>22</ele>
        <time>2023-08-11T16:29:58Z</time>
      </trkpt>
      <trkpt lat="47.36325" lon="-1.5426">
        <ele>22</ele>
        <time>2023-08-11T16:30:14Z</time>
      </trkpt>
      <trkpt lat="47.36262" lon="-1.54241">
        <ele>25</ele>
        <time>2023-08-11T16:31:40Z</time>
      </trkpt>
      <trkpt lat="47.362" lon="-1.54198">
        <ele>26</ele>
        <time>2023-08-11T16:33:11Z</time>
      </trkpt>
      <trkpt lat="47.36191" lon="-1.542">
        <ele>26</ele>
        <time>2023-08-11T16:33:23Z</time>
      </trkpt>
      <trkpt lat="47.36184" lon="-1.54195">
        <ele>26</ele>
        <time>2023-08-11T16:33:34Z</time>
      </trkpt>
      <trkpt lat="47.36173" lon="-1.54165">
        <ele>27</ele>
        <time>2023-08-11T16:34:04Z</time>
      </trkpt>
      <trkpt lat="47.36182" lon="-1.54078">
        <ele>27</ele>
        <time>2023-08-11T16:35:24Z</time>
      </trkpt>
      <trkpt lat="47.36187" lon="-1.54053">
        <ele>26</ele>
        <time>2023-08-11T16:35:47Z</time>
      </trkpt>
      <trkpt lat="47.36188" lon="-1.53988">
        <ele>26</ele>
        <time>2023-08-11T16:36:46Z</time>
      </trkpt>
      <trkpt lat="47.36177" lon="-1.53909">
        <ele>26</ele>
        <time>2023-08-11T16:37:59Z</time>
      </trkpt>
      <trkpt lat="47.36177" lon="-1.53881">
        <ele>26</ele>
        <time>2023-08-11T16:38:24Z</time>
      </trkpt>
      <trkpt lat="47.36183" lon="-1.53816">
        <ele>27</ele>
        <time>2023-08-11T16:39:24Z</time>
      </trkpt>
      <trkpt lat="47.36187" lon="-1.53799">
        <ele>27</ele>
        <time>2023-08-11T16:39:40Z</time>
      </trkpt>
      <trkpt lat="47.36186" lon="-1.53782">
        <ele>27</ele>
        <time>2023-08-11T16:39:55Z</time>
      </trkpt>
      <trkpt lat="47.3618" lon="-1.53779">
        <ele>27</ele>
        <time>2023-08-11T16:40:04Z</time>
      </trkpt>
      <trkpt lat="47.36174" lon="-1.5378">
        <ele>28</ele>
        <time>2023-08-11T16:40:12Z</time>
      </trkpt>
      <trkpt lat="47.36123" lon="-1.53795">
        <ele>27</ele>
        <time>2023-08-11T16:41:21Z</time>
      </trkpt>
      <trkpt lat="47.36111" lon="-1.53801">
        <ele>27</ele>
        <time>2023-08-11T16:41:38Z</time>
      </trkpt>
      <trkpt lat="47.36036" lon="-1.53819">
        <ele>28</ele>
        <time>2023-08-11T16:43:20Z</time>
      </trkpt>
      <trkpt lat="47.36022" lon="-1.5382">
        <ele>28</ele>
        <time>2023-08-11T16:43:38Z</time>
      </trkpt>
      <trkpt lat="47.3601" lon="-1.53818">
        <ele>28</ele>
        <time>2023-08-11T16:43:54Z</time>
      </trkpt>
      <trkpt lat="47.35955" lon="-1.53793">
        <ele>30</ele>
        <time>2023-08-11T16:45:11Z</time>
      </trkpt>
      <trkpt lat="47.35819" lon="-1.53709">
        <ele>31</ele>
        <time>2023-08-11T16:48:28Z</time>
      </trkpt>
      <trkpt lat="47.35765" lon="-1.5368">
        <ele>30</ele>
        <time>2023-08-11T16:49:45Z</time>
      </trkpt>
      <trkpt lat="47.35754" lon="-1.53672">
        <ele>30</ele>
        <time>2023-08-11T16:50:01Z</time>
      </trkpt>
      <trkpt lat="47.35728" lon="-1.5366">
        <ele>31</ele>
        <time>2023-08-11T16:50:37Z</time>
      </trkpt>
      <trkpt lat="47.35711" lon="-1.53649">
        <ele>31</ele>
        <time>2023-08-11T16:51:02Z</time>
      </trkpt>
      <trkpt lat="47.35675" lon="-1.53635">
        <ele>32</ele>
        <time>2023-08-11T16:51:52Z</time>
      </trkpt>
      <trkpt lat="47.35654" lon="-1.53619">
        <ele>32</ele>
        <time>2023-08-11T16:52:23Z</time>
      </trkpt>
      <trkpt lat="47.35639" lon="-1.53613">
        <ele>32</ele>
        <time>2023-08-11T16:52:44Z</time>
      </trkpt>
      <trkpt lat="47.35629" lon="-1.53606">
        <ele>32</ele>
        <time>2023-08-11T16:52:59Z</time>
      </trkpt>
      <trkpt lat="47.35613" lon="-1.53601">
        <ele>33</ele>
        <time>2023-08-11T16:53:21Z</time>
      </trkpt>
      <trkpt lat="47.35566" lon="-1.53573">
        <ele>33</ele>
        <time>2023-08-11T16:54:28Z</time>
      </trkpt>
      <trkpt lat="47.35547" lon="-1.53567">
        <ele>33</ele>
        <time>2023-08-11T16:54:54Z</time>
      </trkpt>
      <trkpt lat="47.35541" lon="-1.53561">
        <ele>33</ele>
        <time>2023-08-11T16:55:04Z</time>
      </trkpt>
      <trkpt lat="47.35518" lon="-1.53547">
        <ele>33</ele>
        <time>2023-08-11T16:55:37Z</time>
      </trkpt>
      <trkpt lat="47.35493" lon="-1.53537">
        <ele>33</ele>
        <time>2023-08-11T16:56:12Z</time>
      </trkpt>
      <trkpt lat="47.35488" lon="-1.53533">
        <ele>33</ele>
        <time>2023-08-11T16:56:19Z</time>
      </trkpt>
      <trkpt lat="47.35438" lon="-1.53516">
        <ele>32</ele>
        <time>2023-08-11T16:57:28Z</time>
      </trkpt>
      <trkpt lat="47.35409" lon="-1.53501">
        <ele>32</ele>
        <time>2023-08-11T16:58:09Z</time>
      </trkpt>
      <trkpt lat="47.35377" lon="-1.5349">
        <ele>30</ele>
        <time>2023-08-11T16:58:53Z</time>
      </trkpt>
      <trkpt lat="47.3537" lon="-1.53491">
        <ele>30</ele>
        <time>2023-08-11T16:59:02Z</time>
      </trkpt>
      <trkpt lat="47.35349" lon="-1.53485">
        <ele>29</ele>
        <time>2023-08-11T16:59:31Z</time>
      </trkpt>
      <trkpt lat="47.35308" lon="-1.53484">
        <ele>29</ele>
        <time>2023-08-11T17:00:25Z</time>
      </trkpt>
      <trkpt lat="47.35289" lon="-1.53481">
        <ele>30</ele>
        <time>2023-08-11T17:00:51Z</time>
      </trkpt>
      <trkpt lat="47.35276" lon="-1.53483">
        <ele>30</ele>
        <time>2023-08-11T17:01:08Z</time>
      </trkpt>
      <trkpt lat="47.3526" lon="-1.53477">
        <ele>30</ele>
        <time>2023-08-11T17:01:30Z</time>
      </trkpt>
      <trkpt lat="47.35254" lon="-1.53477">
        <ele>30</ele>
        <time>2023-08-11T17:01:38Z</time>
      </trkpt>
      <trkpt lat="47.35239" lon="-1.53471">
        <ele>31</ele>
        <time>2023-08-11T17:01:59Z</time>
      </trkpt>
      <trkpt lat="47.35235" lon="-1.53467">
        <ele>31</ele>
        <time>2023-08-11T17:02:05Z</time>
      </trkpt>
      <trkpt lat="47.35162" lon="-1.53442">
        <ele>32</ele>
        <time>2023-08-11T17:03:45Z</time>
      </trkpt>
      <trkpt lat="47.35149" lon="-1.53434">
        <ele>32</ele>
        <time>2023-08-11T17:04:04Z</time>
      </trkpt>
      <trkpt lat="47.35136" lon="-1.53432">
        <ele>32</ele>
        <time>2023-08-11T17:04:22Z</time>
      </trkpt>
      <trkpt lat="47.35086" lon="-1.53411">
        <ele>33</ele>
        <time>2023-08-11T17:05:31Z</time>
      </trkpt>
      <trkpt lat="47.35074" lon="-1.53408">
        <ele>33</ele>
        <time>2023-08-11T17:05:47Z</time>
      </trkpt>
      <trkpt lat="47.35049" lon="-1.53396">
        <ele>34</ele>
        <time>2023-08-11T17:06:22Z</time>
      </trkpt>
      <trkpt lat="47.35026" lon="-1.53392">
        <ele>34</ele>
        <time>2023-08-11T17:06:53Z</time>
      </trkpt>
      <trkpt lat="47.35002" lon="-1.53383">
        <ele>35</ele>
        <time>2023-08-11T17:07:26Z</time>
      </trkpt>
      <trkpt lat="47.34997" lon="-1.53379">
        <ele>35</ele>
        <time>2023-08-11T17:07:34Z</time>
      </trkpt>
      <trkpt lat="47.34973" lon="-1.53373">
        <ele>35</ele>
        <time>2023-08-11T17:08:06Z</time>
      </trkpt>
      <trkpt lat="47.34944" lon="-1.53359">
        <ele>36</ele>
        <time>2023-08-11T17:08:47Z</time>
      </trkpt>
      <trkpt lat="47.34895" lon="-1.53342">
        <ele>36</ele>
        <time>2023-08-11T17:09:54Z</time>
      </trkpt>
      <trkpt lat="47.34889" lon="-1.53338">
        <ele>36</ele>
        <time>2023-08-11T17:10:03Z</time>
      </trkpt>
      <trkpt lat="47.34849" lon="-1.53332">
        <ele>37</ele>
        <time>2023-08-11T17:10:57Z</time>
      </trkpt>
      <trkpt lat="47.34843" lon="-1.5332">
        <ele>37</ele>
        <time>2023-08-11T17:11:10Z</time>
      </trkpt>
      <trkpt lat="47.34841" lon="-1.53274">
        <ele>35</ele>
        <time>2023-08-11T17:11:52Z</time>
      </trkpt>
      <trkpt lat="47.34836" lon="-1.53249">
        <ele>35</ele>
        <time>2023-08-11T17:12:15Z</time>
      </trkpt>
      <trkpt lat="47.3483" lon="-1.53233">
        <ele>34</ele>
        <time>2023-08-11T17:12:32Z</time>
      </trkpt>
      <trkpt lat="47.34832" lon="-1.53225">
        <ele>34</ele>
        <time>2023-08-11T17:12:40Z</time>
      </trkpt>
      <trkpt lat="47.34831" lon="-1.53205">
        <ele>33</ele>
        <time>2023-08-11T17:12:58Z</time>
      </trkpt>
      <trkpt lat="47.34803" lon="-1.53134">
        <ele>31</ele>
        <time>2023-08-11T17:14:12Z</time>
      </trkpt>
      <trkpt lat="47.34795" lon="-1.53122">
        <ele>30</ele>
        <time>2023-08-11T17:14:27Z</time>
      </trkpt>
      <trkpt lat="47.34793" lon="-1.53114">
        <ele>30</ele>
        <time>2023-08-11T17:14:35Z</time>
      </trkpt>
      <trkpt lat="47.34772" lon="-1.53086">
        <ele>30</ele>
        <time>2023-08-11T17:15:13Z</time>
      </trkpt>
      <trkpt lat="47.34769" lon="-1.53084">
        <ele>30</ele>
        <time>2023-08-11T17:15:17Z</time>
      </trkpt>
      <trkpt lat="47.34741" lon="-1.53086">
        <ele>31</ele>
        <time>2023-08-11T17:15:55Z</time>
      </trkpt>
      <trkpt lat="47.34739" lon="-1.53083">
        <ele>31</ele>
        <time>2023-08-11T17:15:58Z</time>
      </trkpt>
      <trkpt lat="47.34716" lon="-1.53085">
        <ele>31</ele>
        <time>2023-08-11T17:16:29Z</time>
      </trkpt>
      <trkpt lat="47.34698" lon="-1.53082">
        <ele>31</ele>
        <time>2023-08-11T17:16:53Z</time>
      </trkpt>
      <trkpt lat="47.34675" lon="-1.53073">
        <ele>30</ele>
        <time>2023-08-11T17:17:25Z</time>
      </trkpt>
      <trkpt lat="47.34644" lon="-1.53056">
        <ele>29</ele>
        <time>2023-08-11T17:18:09Z</time>
      </trkpt>
      <trkpt lat="47.34632" lon="-1.53053">
        <ele>28</ele>
        <time>2023-08-11T17:18:25Z</time>
      </trkpt>
      <trkpt lat="47.34599" lon="-1.53033">
        <ele>27</ele>
        <time>2023-08-11T17:19:13Z</time>
      </trkpt>
      <trkpt lat="47.34557" lon="-1.52999">
        <ele>25</ele>
        <time>2023-08-11T17:20:17Z</time>
      </trkpt>
      <trkpt lat="47.34552" lon="-1.53">
        <ele>25</ele>
        <time>2023-08-11T17:20:24Z</time>
      </trkpt>
      <trkpt lat="47.34544" lon="-1.53012">
        <ele>25</ele>
        <time>2023-08-11T17:20:39Z</time>
      </trkpt>
      <trkpt lat="47.34533" lon="-1.53006">
        <ele>24</ele>
        <time>2023-08-11T17:20:55Z</time>
      </trkpt>
      <trkpt lat="47.34514" lon="-1.52963">
        <ele>24</ele>
        <time>2023-08-11T17:21:41Z</time>
      </trkpt>
      <trkpt lat="47.34493" lon="-1.52925">
        <ele>24</ele>
        <time>2023-08-11T17:22:25Z</time>
      </trkpt>
      <trkpt lat="47.3448" lon="-1.52912">
        <ele>23</ele>
        <time>2023-08-11T17:22:46Z</time>
      </trkpt>
      <trkpt lat="47.34469" lon="-1.52893">
        <ele>22</ele>
        <time>2023-08-11T17:23:09Z</time>
      </trkpt>
      <trkpt lat="47.34438" lon="-1.52856">
        <ele>21</ele>
        <time>2023-08-11T17:24:02Z</time>
        <extensions>
          <visugpx:TrkExtension xmlns:visugpx="https://www.visugpx.com/editgpx/">
            <visugpx:node>1</visugpx:node>
            </visugpx:TrkExtension>
        </extensions>
      </trkpt>
    </trkseg>
  </trk>
</gpx>